Terminal Aerodrome Forecast
Issued by NWS Pueblo, CO

Home | Current Version | Previous Version | Text Only | Print | Product List | Glossary On
Versions: 1 2 3 4 5 6 7 8 9 10 11 12 13 14 15 16 17 18 19 20
000
FTUS45 KPUB 192015 AAA
TAFALS
TAF AMD
KALS 192015Z 1920/2018 28010KT P6SM VCTS SCT120CB BKN200
      TEMPO 1920/1922 VRB20G38KT
     FM200200 28008KT P6SM FEW140 SCT200
     FM200500 17006KT P6SM FEW140
     FM200900 VRB04KT P6SM SKC=

USA.gov is the U.S. government's official web portal to all federal, state and local government web resources and services.